sensor_id;sensor_type;location;lat;lon;timestamp;pressure;altitude;pressure_sealevel;temperature;humidity
74437;BME280;62868;52.360;30.424;2023-07-29T00:00:27;1018;;;18.9;60.5
74437;BME280;62868;52.360;30.424;2023-07-29T00:05:23;1017.9;;;18.9;60.6
74437;BME280;62868;52.360;30.424;2023-07-29T00:10:40;1017.9;;;19;60.7
74437;BME280;62868;52.360;30.424;2023-07-29T00:15:44;1017.9;;;19;60.7
74437;BME280;62868;52.360;30.424;2023-07-29T00:20:52;1017.8;;;19;60.8
74437;BME280;62868;52.360;30.424;2023-07-29T00:25:29;1017.7;;;19;60.9
74437;BME280;62868;52.360;30.424;2023-07-29T00:30:12;1017.7;;;19;60.8
74437;BME280;62868;52.360;30.424;2023-07-29T00:35:24;1017.7;;;19;60.7
74437;BME280;62868;52.360;30.424;2023-07-29T00:40:52;1017.7;;;19.1;60.5
74437;BME280;62868;52.360;30.424;2023-07-29T00:45:38;1017.6;;;19.1;60.3
74437;BME280;62868;52.360;30.424;2023-07-29T00:50:42;1017.6;;;19.2;60
74437;BME280;62868;52.360;30.424;2023-07-29T00:55:54;1017.6;;;19.2;59.8
74437;BME280;62868;52.360;30.424;2023-07-29T01:00:40;1017.6;;;19.4;59.4
74437;BME280;62868;52.360;30.424;2023-07-29T01:06:01;1017.5;;;19.4;59.1
74437;BME280;62868;52.360;30.424;2023-07-29T01:10:14;1017.5;;;19.4;59
74437;BME280;62868;52.360;30.424;2023-07-29T01:15:54;1017.4;;;19.4;58.8
74437;BME280;62868;52.360;30.424;2023-07-29T01:20:54;1017.4;;;19.5;58.6
74437;BME280;62868;52.360;30.424;2023-07-29T01:25:52;1017.4;;;19.5;58.5
74437;BME280;62868;52.360;30.424;2023-07-29T01:30:55;1017.4;;;19.5;58.2
74437;BME280;62868;52.360;30.424;2023-07-29T01:35:40;1017.4;;;19.6;58
74437;BME280;62868;52.360;30.424;2023-07-29T01:40:50;1017.5;;;19.5;58
74437;BME280;62868;52.360;30.424;2023-07-29T01:45:18;1017.5;;;19.6;57.9
74437;BME280;62868;52.360;30.424;2023-07-29T01:50:52;1017.4;;;19.6;57.8
74437;BME280;62868;52.360;30.424;2023-07-29T01:55:38;1017.4;;;19.6;57.6
74437;BME280;62868;52.360;30.424;2023-07-29T02:00:12;1017.4;;;19.6;57.6
74437;BME280;62868;52.360;30.424;2023-07-29T02:05:54;1017.5;;;19.6;57.6
74437;BME280;62868;52.360;30.424;2023-07-29T02:10:38;1017.5;;;19.6;57.6
74437;BME280;62868;52.360;30.424;2023-07-29T02:15:12;1017.5;;;19.6;57.6
74437;BME280;62868;52.360;30.424;2023-07-29T02:20:12;1017.5;;;19.6;57.6
74437;BME280;62868;52.360;30.424;2023-07-29T02:25:38;1017.5;;;19.6;57.5
74437;BME280;62868;52.360;30.424;2023-07-29T02:30:41;1017.6;;;19.6;57.6
74437;BME280;62868;52.360;30.424;2023-07-29T02:35:40;1017.6;;;19.7;57.6
74437;BME280;62868;52.360;30.424;2023-07-29T02:40:54;1017.6;;;19.7;57.5
74437;BME280;62868;52.360;30.424;2023-07-29T02:45:12;1017.7;;;19.7;57.6
74437;BME280;62868;52.360;30.424;2023-07-29T02:50:38;1017.7;;;19.7;57.6
74437;BME280;62868;52.360;30.424;2023-07-29T02:55:20;1017.7;;;19.7;57.6
74437;BME280;62868;52.360;30.424;2023-07-29T03:00:30;1017.7;;;19.8;57.6
74437;BME280;62868;52.360;30.424;2023-07-29T03:05:44;1017.7;;;19.8;57.7
74437;BME280;62868;52.360;30.424;2023-07-29T03:10:54;1017.7;;;19.9;57.6
74437;BME280;62868;52.360;30.424;2023-07-29T03:15:12;1017.7;;;20;57.6
74437;BME280;62868;52.360;30.424;2023-07-29T03:20:30;1017.7;;;20;57.6
74437;BME280;62868;52.360;30.424;2023-07-29T03:25:54;1017.8;;;20.1;57.6
74437;BME280;62868;52.360;30.424;2023-07-29T03:30:24;1017.8;;;20.2;57.5
74437;BME280;62868;52.360;30.424;2023-07-29T03:35:26;1017.8;;;20.3;57.4
74437;BME280;62868;52.360;30.424;2023-07-29T03:40:12;1017.8;;;20.3;57.5
74437;BME280;62868;52.360;30.424;2023-07-29T03:45:44;1017.8;;;20.4;57.4
74437;BME280;62868;52.360;30.424;2023-07-29T03:50:12;1017.8;;;20.4;57.5
74437;BME280;62868;52.360;30.424;2023-07-29T03:55:30;1017.8;;;20.4;57.5
74437;BME280;62868;52.360;30.424;2023-07-29T04:00:54;1017.8;;;20.5;57.3
74437;BME280;62868;52.360;30.424;2023-07-29T04:05:44;1017.8;;;20.6;57.2
74437;BME280;62868;52.360;30.424;2023-07-29T04:10:28;1017.8;;;20.7;57.3
74437;BME280;62868;52.360;30.424;2023-07-29T04:15:30;1017.9;;;20.8;57.2
74437;BME280;62868;52.360;30.424;2023-07-29T04:20:54;1017.9;;;21;56.9
74437;BME280;62868;52.360;30.424;2023-07-29T04:25:12;1017.9;;;21.2;56.8
74437;BME280;62868;52.360;30.424;2023-07-29T04:30:24;1017.8;;;21.4;56.7
74437;BME280;62868;52.360;30.424;2023-07-29T04:35:40;1017.8;;;21.7;56.4
74437;BME280;62868;52.360;30.424;2023-07-29T04:40:14;1017.8;;;22.1;56
74437;BME280;62868;52.360;30.424;2023-07-29T04:45:54;1017.8;;;22.6;55.6
74437;BME280;62868;52.360;30.424;2023-07-29T04:50:30;1017.7;;;23.4;54.7
74437;BME280;62868;52.360;30.424;2023-07-29T04:55:16;1017.6;;;24.3;54
74437;BME280;62868;52.360;30.424;2023-07-29T05:00:16;1017.7;;;25;53.3
74437;BME280;62868;52.360;30.424;2023-07-29T05:05:54;1017.7;;;25.2;53.1
74437;BME280;62868;52.360;30.424;2023-07-29T05:10:40;1017.7;;;25.3;52.9
74437;BME280;62868;52.360;30.424;2023-07-29T05:15:44;1017.7;;;25.6;52.3
74437;BME280;62868;52.360;30.424;2023-07-29T05:20:54;1017.7;;;25.9;52
74437;BME280;62868;52.360;30.424;2023-07-29T05:25:24;1017.7;;;26.1;51.8
74437;BME280;62868;52.360;30.424;2023-07-29T05:30:12;1017.6;;;26.5;51.4
74437;BME280;62868;52.360;30.424;2023-07-29T05:35:12;1017.6;;;26.8;51.1
74437;BME280;62868;52.360;30.424;2023-07-29T05:40:54;1017.6;;;26.9;50.9
74437;BME280;62868;52.360;30.424;2023-07-29T05:45:48;1017.5;;;27.1;50.7
74437;BME280;62868;52.360;30.424;2023-07-29T05:50:54;1017.6;;;27.4;50.3
74437;BME280;62868;52.360;30.424;2023-07-29T05:55:54;1017.5;;;27.6;50
74437;BME280;62868;52.360;30.424;2023-07-29T06:00:40;1017.5;;;27.7;49.8
74437;BME280;62868;52.360;30.424;2023-07-29T06:05:32;1017.4;;;27.9;49.6
74437;BME280;62868;52.360;30.424;2023-07-29T06:10:14;1017.4;;;28.2;49.1
74437;BME280;62868;52.360;30.424;2023-07-29T06:15:54;1017.4;;;28.3;48.9
74437;BME280;62868;52.360;30.424;2023-07-29T06:20:36;1017.4;;;28.6;48.4
74437;BME280;62868;52.360;30.424;2023-07-29T06:25:40;1017.4;;;29;47.7
74437;BME280;62868;52.360;30.424;2023-07-29T06:30:54;1017.4;;;29.4;47.2
74437;BME280;62868;52.360;30.424;2023-07-29T06:35:28;1017.4;;;29.7;46.8
74437;BME280;62868;52.360;30.424;2023-07-29T06:40:20;1017.4;;;29.8;46.5
74437;BME280;62868;52.360;30.424;2023-07-29T06:45:20;1017.4;;;29.9;46.3
74437;BME280;62868;52.360;30.424;2023-07-29T06:50:12;1017.3;;;30.1;46.1
74437;BME280;62868;52.360;30.424;2023-07-29T06:55:26;1017.4;;;30.2;45.7
74437;BME280;62868;52.360;30.424;2023-07-29T07:00:38;1017.4;;;30.2;45.6
74437;BME280;62868;52.360;30.424;2023-07-29T07:05:26;1017.4;;;30.2;45.4
74437;BME280;62868;52.360;30.424;2023-07-29T07:10:40;1017.4;;;30.7;44.7
74437;BME280;62868;52.360;30.424;2023-07-29T07:15:36;1017.4;;;31;44.4
74437;BME280;62868;52.360;30.424;2023-07-29T07:20:12;1017.4;;;31.3;44
74437;BME280;62868;52.360;30.424;2023-07-29T07:25:12;1017.4;;;30.8;44.1
74437;BME280;62868;52.360;30.424;2023-07-29T07:30:44;1017.4;;;30.8;43.9
74437;BME280;62868;52.360;30.424;2023-07-29T07:35:46;1017.4;;;30.8;43.6
74437;BME280;62868;52.360;30.424;2023-07-29T07:40:38;1017.4;;;30.9;43.2
74437;BME280;62868;52.360;30.424;2023-07-29T07:45:31;1017.4;;;30.9;43.2
74437;BME280;62868;52.360;30.424;2023-07-29T07:50:52;1017.4;;;31.2;42.7
74437;BME280;62868;52.360;30.424;2023-07-29T07:55:20;1017.4;;;31.7;42.2
74437;BME280;62868;52.360;30.424;2023-07-29T08:00:22;1017.4;;;31.7;42
74437;BME280;62868;52.360;30.424;2023-07-29T08:05:12;1017.4;;;31.9;41.6
74437;BME280;62868;52.360;30.424;2023-07-29T08:10:42;1017.4;;;31.5;42.1
74437;BME280;62868;52.360;30.424;2023-07-29T08:15:16;1017.4;;;31;42.5
74437;BME280;62868;52.360;30.424;2023-07-29T08:20:26;1017.4;;;31.5;41.8
74437;BME280;62868;52.360;30.424;2023-07-29T08:25:52;1017.4;;;32.1;41.2
74437;BME280;62868;52.360;30.424;2023-07-29T08:30:32;1017.4;;;32.3;40.9
74437;BME280;62868;52.360;30.424;2023-07-29T08:35:26;1017.4;;;32.3;40.7
74437;BME280;62868;52.360;30.424;2023-07-29T08:40:12;1017.4;;;32.3;40.8
74437;BME280;62868;52.360;30.424;2023-07-29T08:45:52;1017.4;;;32.5;40.4
74437;BME280;62868;52.360;30.424;2023-07-29T08:50:16;1017.3;;;32.7;40.1
74437;BME280;62868;52.360;30.424;2023-07-29T08:55:16;1017.3;;;32.4;40.3
74437;BME280;62868;52.360;30.424;2023-07-29T09:00:36;1017.3;;;31.8;41
74437;BME280;62868;52.360;30.424;2023-07-29T09:05:42;1017.4;;;31.7;41.1
74437;BME280;62868;52.360;30.424;2023-07-29T09:10:52;1017.4;;;31.7;40.8
74437;BME280;62868;52.360;30.424;2023-07-29T09:15:25;1017.4;;;31.5;41.1
74437;BME280;62868;52.360;30.424;2023-07-29T09:20:12;1017.4;;;31.4;41.1
74437;BME280;62868;52.360;30.424;2023-07-29T09:25:12;1017.4;;;31.8;40.7
74437;BME280;62868;52.360;30.424;2023-07-29T09:30:52;1017.4;;;32.1;40.4
74437;BME280;62868;52.360;30.424;2023-07-29T09:35:40;1017.5;;;31.4;41.1
74437;BME280;62868;52.360;30.424;2023-07-29T09:40:40;1017.5;;;31.6;41
74437;BME280;62868;52.360;30.424;2023-07-29T09:45:52;1017.5;;;32.2;40.3
74437;BME280;62868;52.360;30.424;2023-07-29T09:50:32;1017.5;;;31.6;41
74437;BME280;62868;52.360;30.424;2023-07-29T09:55:12;1017.5;;;31;41.6
74437;BME280;62868;52.360;30.424;2023-07-29T10:00:28;1017.6;;;30.8;41.7
74437;BME280;62868;52.360;30.424;2023-07-29T10:05:52;1017.6;;;30.9;41.4
74437;BME280;62868;52.360;30.424;2023-07-29T10:10:52;1017.7;;;30.2;42.3
74437;BME280;62868;52.360;30.424;2023-07-29T10:15:42;1017.7;;;29.9;42.4
74437;BME280;62868;52.360;30.424;2023-07-29T10:20:48;1017.8;;;29.9;42.3
74437;BME280;62868;52.360;30.424;2023-07-29T10:25:28;1017.8;;;30;42.4
74437;BME280;62868;52.360;30.424;2023-07-29T10:30:16;1017.9;;;30;42.5
74437;BME280;62868;52.360;30.424;2023-07-29T10:35:40;1017.9;;;30.1;42.5
74437;BME280;62868;52.360;30.424;2023-07-29T10:40:52;1017.9;;;30.8;41.9
74437;BME280;62868;52.360;30.424;2023-07-29T10:45:36;1017.9;;;31.3;41.5
74437;BME280;62868;52.360;30.424;2023-07-29T10:50:26;1017.9;;;31.3;41.7
74437;BME280;62868;52.360;30.424;2023-07-29T10:55:52;1018;;;31;42.2
74437;BME280;62868;52.360;30.424;2023-07-29T11:00:12;1018;;;30.6;42.6
74437;BME280;62868;52.360;30.424;2023-07-29T11:05:16;1018;;;30.4;42.8
74437;BME280;62868;52.360;30.424;2023-07-29T11:10:12;1017.9;;;30.5;42.5
74437;BME280;62868;52.360;30.424;2023-07-29T11:15:36;1017.8;;;30.7;42.1
74437;BME280;62868;52.360;30.424;2023-07-29T11:20:26;1017.9;;;30.6;42.1
74437;BME280;62868;52.360;30.424;2023-07-29T11:25:40;1017.8;;;31;41.6
74437;BME280;62868;52.360;30.424;2023-07-29T11:30:40;1017.8;;;31.5;41
74437;BME280;62868;52.360;30.424;2023-07-29T11:35:12;1017.8;;;31.9;40.6
74437;BME280;62868;52.360;30.424;2023-07-29T11:40:13;1017.8;;;31.9;40.7
74437;BME280;62868;52.360;30.424;2023-07-29T11:45:12;1017.8;;;31.7;40.8
74437;BME280;62868;52.360;30.424;2023-07-29T11:50:24;1017.9;;;31.2;41.2
74437;BME280;62868;52.360;30.424;2023-07-29T11:55:52;1018;;;30.9;41.2
74437;BME280;62868;52.360;30.424;2023-07-29T12:00:52;1018;;;30.7;41.3
74437;BME280;62868;52.360;30.424;2023-07-29T12:05:12;1018;;;30.6;41.4
74437;BME280;62868;52.360;30.424;2023-07-29T12:10:12;1018;;;30.5;41.4
74437;BME280;62868;52.360;30.424;2023-07-29T12:15:37;1017.9;;;30.9;41.2
74437;BME280;62868;52.360;30.424;2023-07-29T12:20:12;1018;;;30.9;41.3
74437;BME280;62868;52.360;30.424;2023-07-29T12:25:22;1017.9;;;30.8;41.3
74437;BME280;62868;52.360;30.424;2023-07-29T12:30:42;1017.9;;;31;40.9
74437;BME280;62868;52.360;30.424;2023-07-29T12:35:52;1017.9;;;31;40.9
74437;BME280;62868;52.360;30.424;2023-07-29T12:40:22;1018;;;31;40.7
74437;BME280;62868;52.360;30.424;2023-07-29T12:45:12;1018;;;30.6;40.7
74437;BME280;62868;52.360;30.424;2023-07-29T12:50:52;1018.1;;;30.7;40.4
74437;BME280;62868;52.360;30.424;2023-07-29T12:55:12;1018.1;;;31;40
74437;BME280;62868;52.360;30.424;2023-07-29T13:00:26;1018.1;;;30.9;40.1
74437;BME280;62868;52.360;30.424;2023-07-29T13:05:36;1018.2;;;30.4;40.7
74437;BME280;62868;52.360;30.424;2023-07-29T13:10:42;1018.2;;;30.3;40.7
74437;BME280;62868;52.360;30.424;2023-07-29T13:15:16;1018.2;;;30.3;40.5
74437;BME280;62868;52.360;30.424;2023-07-29T13:20:12;1018.2;;;30.3;40.5
74437;BME280;62868;52.360;30.424;2023-07-29T13:25:50;1018.2;;;30.3;40.6
74437;BME280;62868;52.360;30.424;2023-07-29T13:30:32;1018.2;;;30.2;40.7
74437;BME280;62868;52.360;30.424;2023-07-29T13:35:22;1018.2;;;30.6;40.4
74437;BME280;62868;52.360;30.424;2023-07-29T13:40:31;1018.2;;;30.8;40.2
74437;BME280;62868;52.360;30.424;2023-07-29T13:45:42;1018.2;;;30.7;40.2
74437;BME280;62868;52.360;30.424;2023-07-29T13:50:12;1018.2;;;30.2;40.7
74437;BME280;62868;52.360;30.424;2023-07-29T13:55:16;1018.2;;;29.8;41
74437;BME280;62868;52.360;30.424;2023-07-29T14:00:40;1018.2;;;29.7;41.1
74437;BME280;62868;52.360;30.424;2023-07-29T14:05:22;1018.1;;;29.7;41.1
74437;BME280;62868;52.360;30.424;2023-07-29T14:10:50;1018.1;;;29.4;41.2
74437;BME280;62868;52.360;30.424;2023-07-29T14:15:31;1018.2;;;29.6;40.6
74437;BME280;62868;52.360;30.424;2023-07-29T14:20:12;1018.1;;;29.8;40.1
74437;BME280;62868;52.360;30.424;2023-07-29T14:25:12;1018.2;;;29.7;40.2
74437;BME280;62868;52.360;30.424;2023-07-29T14:30:52;1018.2;;;29.4;40.5
74437;BME280;62868;52.360;30.424;2023-07-29T14:35:52;1018.2;;;29.2;40.8
74437;BME280;62868;52.360;30.424;2023-07-29T14:40:52;1018.1;;;29.3;40.9
74437;BME280;62868;52.360;30.424;2023-07-29T14:45:52;1018.1;;;29.2;41.1
74437;BME280;62868;52.360;30.424;2023-07-29T14:50:32;1018.2;;;29;41.5
74437;BME280;62868;52.360;30.424;2023-07-29T14:55:12;1018.2;;;28.7;41.8
74437;BME280;62868;52.360;30.424;2023-07-29T15:00:32;1018.2;;;28.5;41.8
74437;BME280;62868;52.360;30.424;2023-07-29T15:05:50;1018.2;;;28.2;42.1
74437;BME280;62868;52.360;30.424;2023-07-29T15:10:34;1018.2;;;28.2;42
74437;BME280;62868;52.360;30.424;2023-07-29T15:15:12;1018.2;;;28.1;42.1
74437;BME280;62868;52.360;30.424;2023-07-29T15:20:50;1018.2;;;27.9;42.4
74437;BME280;62868;52.360;30.424;2023-07-29T15:25:24;1018.3;;;27.6;42.5
74437;BME280;62868;52.360;30.424;2023-07-29T15:30:35;1018.2;;;27.5;42.5
74437;BME280;62868;52.360;30.424;2023-07-29T15:35:22;1018.3;;;27.4;42.6
74437;BME280;62868;52.360;30.424;2023-07-29T15:40:34;1018.4;;;27.2;42.9
74437;BME280;62868;52.360;30.424;2023-07-29T15:45:22;1018.5;;;26.8;43.4
74437;BME280;62868;52.360;30.424;2023-07-29T15:50:38;1018.5;;;26.6;43.6
74437;BME280;62868;52.360;30.424;2023-07-29T15:55:50;1018.5;;;26.5;43.7
74437;BME280;62868;52.360;30.424;2023-07-29T16:00:14;1018.5;;;26.4;43.9
74437;BME280;62868;52.360;30.424;2023-07-29T16:05:12;1018.6;;;26.3;44.1
74437;BME280;62868;52.360;30.424;2023-07-29T16:10:12;1018.7;;;26.1;44.4
74437;BME280;62868;52.360;30.424;2023-07-29T16:15:26;1018.7;;;26;44.6
74437;BME280;62868;52.360;30.424;2023-07-29T16:20:34;1018.7;;;25.8;44.9
74437;BME280;62868;52.360;30.424;2023-07-29T16:25:50;1018.7;;;25.6;45.1
74437;BME280;62868;52.360;30.424;2023-07-29T16:30:26;1018.8;;;25.5;45.2
74437;BME280;62868;52.360;30.424;2023-07-29T16:35:16;1018.8;;;25.4;45.3
74437;BME280;62868;52.360;30.424;2023-07-29T16:40:34;1018.9;;;25.2;45.5
74437;BME280;62868;52.360;30.424;2023-07-29T16:45:40;1018.9;;;25;45.8
74437;BME280;62868;52.360;30.424;2023-07-29T16:50:12;1018.9;;;24.8;46
74437;BME280;62868;52.360;30.424;2023-07-29T16:55:42;1019;;;24.7;46.2
74437;BME280;62868;52.360;30.424;2023-07-29T17:00:52;1019;;;24.5;46.4
74437;BME280;62868;52.360;30.424;2023-07-29T17:05:18;1019.1;;;24.4;46.6
74437;BME280;62868;52.360;30.424;2023-07-29T17:10:16;1019.1;;;24.3;46.7
74437;BME280;62868;52.360;30.424;2023-07-29T17:15:52;1019.1;;;24.1;47
74437;BME280;62868;52.360;30.424;2023-07-29T17:20:20;1019.1;;;23.9;47.1
74437;BME280;62868;52.360;30.424;2023-07-29T17:25:26;1019.1;;;23.8;47.4
74437;BME280;62868;52.360;30.424;2023-07-29T17:30:31;1019.1;;;23.6;47.7
74437;BME280;62868;52.360;30.424;2023-07-29T17:35:41;1019.2;;;23.5;47.8
74437;BME280;62868;52.360;30.424;2023-07-29T17:40:18;1019.2;;;23.3;48
74437;BME280;62868;52.360;30.424;2023-07-29T17:45:16;1019.2;;;23.1;48.3
74437;BME280;62868;52.360;30.424;2023-07-29T17:50:50;1019.2;;;23;48.3
74437;BME280;62868;52.360;30.424;2023-07-29T17:55:42;1019.3;;;22.9;48.5
74437;BME280;62868;52.360;30.424;2023-07-29T18:00:12;1019.3;;;22.6;48.9
74437;BME280;62868;52.360;30.424;2023-07-29T18:05:12;1019.3;;;22.4;49.2
74437;BME280;62868;52.360;30.424;2023-07-29T18:10:40;1019.4;;;22.3;49.4
74437;BME280;62868;52.360;30.424;2023-07-29T18:15:16;1019.4;;;22;50
74437;BME280;62868;52.360;30.424;2023-07-29T18:20:52;1019.5;;;21.8;50.4
74437;BME280;62868;52.360;30.424;2023-07-29T18:25:40;1019.5;;;21.7;50.7
74437;BME280;62868;52.360;30.424;2023-07-29T18:30:42;1019.5;;;21.5;51
74437;BME280;62868;52.360;30.424;2023-07-29T18:35:52;1019.5;;;21.3;51.5
74437;BME280;62868;52.360;30.424;2023-07-29T18:40:40;1019.5;;;21;52
74437;BME280;62868;52.360;30.424;2023-07-29T18:45:12;1019.6;;;20.9;52.2
74437;BME280;62868;52.360;30.424;2023-07-29T18:50:12;1019.6;;;20.7;52.6
74437;BME280;62868;52.360;30.424;2023-07-29T18:55:52;1019.6;;;20.6;52.7
74437;BME280;62868;52.360;30.424;2023-07-29T19:00:52;1019.7;;;20.5;53.2
74437;BME280;62868;52.360;30.424;2023-07-29T19:05:54;1019.8;;;20.3;53.5
74437;BME280;62868;52.360;30.424;2023-07-29T19:10:52;1019.8;;;20.2;53.7
74437;BME280;62868;52.360;30.424;2023-07-29T19:15:38;1019.9;;;20.1;54
74437;BME280;62868;52.360;30.424;2023-07-29T19:20:12;1019.9;;;20.1;54.2
74437;BME280;62868;52.360;30.424;2023-07-29T19:25:43;1019.9;;;20;54.3
74437;BME280;62868;52.360;30.424;2023-07-29T19:30:52;1019.9;;;20;54.5
74437;BME280;62868;52.360;30.424;2023-07-29T19:35:36;1020;;;20;54.5
74437;BME280;62868;52.360;30.424;2023-07-29T19:40:26;1020;;;19.9;54.6
74437;BME280;62868;52.360;30.424;2023-07-29T19:45:52;1020.1;;;19.9;54.7
74437;BME280;62868;52.360;30.424;2023-07-29T19:50:12;1020.1;;;19.8;54.8
74437;BME280;62868;52.360;30.424;2023-07-29T19:55:12;1020.1;;;19.8;54.9
74437;BME280;62868;52.360;30.424;2023-07-29T20:00:24;1020.1;;;19.7;55.1
74437;BME280;62868;52.360;30.424;2023-07-29T20:05:54;1020.2;;;19.7;55.3
74437;BME280;62868;52.360;30.424;2023-07-29T20:10:26;1020.3;;;19.6;55.3
74437;BME280;62868;52.360;30.424;2023-07-29T20:15:14;1020.3;;;19.6;55.4
74437;BME280;62868;52.360;30.424;2023-07-29T20:20:30;1020.4;;;19.5;55.5
74437;BME280;62868;52.360;30.424;2023-07-29T20:25:16;1020.4;;;19.5;55.6
74437;BME280;62868;52.360;30.424;2023-07-29T20:30:16;1020.4;;;19.5;55.8
74437;BME280;62868;52.360;30.424;2023-07-29T20:35:12;1020.4;;;19.4;56
74437;BME280;62868;52.360;30.424;2023-07-29T20:40:28;1020.4;;;19.3;56.1
74437;BME280;62868;52.360;30.424;2023-07-29T20:45:30;1020.5;;;19.3;56.2
74437;BME280;62868;52.360;30.424;2023-07-29T20:50:54;1020.5;;;19.2;56.5
74437;BME280;62868;52.360;30.424;2023-07-29T20:55:30;1020.5;;;19.1;56.5
74437;BME280;62868;52.360;30.424;2023-07-29T21:00:26;1020.5;;;19;56.7
74437;BME280;62868;52.360;30.424;2023-07-29T21:05:38;1020.4;;;18.9;56.9
74437;BME280;62868;52.360;30.424;2023-07-29T21:10:54;1020.4;;;18.8;57.2
74437;BME280;62868;52.360;30.424;2023-07-29T21:15:12;1020.4;;;18.7;57.4
74437;BME280;62868;52.360;30.424;2023-07-29T21:20:44;1020.5;;;18.7;57.4
74437;BME280;62868;52.360;30.424;2023-07-29T21:25:44;1020.6;;;18.6;57.7
74437;BME280;62868;52.360;30.424;2023-07-29T21:30:24;1020.6;;;18.5;57.9
74437;BME280;62868;52.360;30.424;2023-07-29T21:35:16;1020.7;;;18.4;58.1
74437;BME280;62868;52.360;30.424;2023-07-29T21:40:40;1020.6;;;18.4;58
74437;BME280;62868;52.360;30.424;2023-07-29T21:45:20;1020.6;;;18.3;58.1
74437;BME280;62868;52.360;30.424;2023-07-29T21:50:26;1020.6;;;18.3;58.1
74437;BME280;62868;52.360;30.424;2023-07-29T21:55:30;1020.6;;;18.3;58.2
74437;BME280;62868;52.360;30.424;2023-07-29T22:00:44;1020.6;;;18.2;58.5
74437;BME280;62868;52.360;30.424;2023-07-29T22:05:12;1020.6;;;18.1;58.6
74437;BME280;62868;52.360;30.424;2023-07-29T22:10:24;1020.6;;;18;58.8
74437;BME280;62868;52.360;30.424;2023-07-29T22:15:40;1020.7;;;18;58.8
74437;BME280;62868;52.360;30.424;2023-07-29T22:20:51;1020.7;;;17.9;59.1
74437;BME280;62868;52.360;30.424;2023-07-29T22:25:54;1020.7;;;17.8;59.3
74437;BME280;62868;52.360;30.424;2023-07-29T22:30:12;1020.8;;;17.7;59.4
74437;BME280;62868;52.360;30.424;2023-07-29T22:35:27;1020.7;;;17.6;59.6
74437;BME280;62868;52.360;30.424;2023-07-29T22:40:24;1020.7;;;17.5;59.7
74437;BME280;62868;52.360;30.424;2023-07-29T22:45:55;1020.7;;;17.5;59.8
74437;BME280;62868;52.360;30.424;2023-07-29T22:50:26;1020.7;;;17.4;59.9
74437;BME280;62868;52.360;30.424;2023-07-29T22:55:42;1020.8;;;17.3;60
74437;BME280;62868;52.360;30.424;2023-07-29T23:00:46;1020.8;;;17.3;60.1
74437;BME280;62868;52.360;30.424;2023-07-29T23:05:54;1020.8;;;17.2;60.2
74437;BME280;62868;52.360;30.424;2023-07-29T23:10:16;1020.8;;;17.1;60.4
74437;BME280;62868;52.360;30.424;2023-07-29T23:15:24;1020.8;;;17.1;60.6
74437;BME280;62868;52.360;30.424;2023-07-29T23:20:54;1020.8;;;17;60.6
74437;BME280;62868;52.360;30.424;2023-07-29T23:25:54;1020.8;;;17;60.7
74437;BME280;62868;52.360;30.424;2023-07-29T23:30:54;1020.8;;;17;60.7
74437;BME280;62868;52.360;30.424;2023-07-29T23:35:57;1020.9;;;16.9;60.9
74437;BME280;62868;52.360;30.424;2023-07-29T23:40:22;1020.9;;;16.9;60.9
74437;BME280;62868;52.360;30.424;2023-07-29T23:45:38;1020.9;;;16.9;61.1
74437;BME280;62868;52.360;30.424;2023-07-29T23:50:40;1020.9;;;16.9;61.1
74437;BME280;62868;52.360;30.424;2023-07-29T23:55:54;1020.9;;;16.8;61.1
